Time;durP1;ratioP1;P1;durP2;ratioP2;P2;SDS_P1;SDS_P2;PMS_P1;PMS_P2;Temp;Humidity;BMP_temperature;BMP_pressure;BME280_temperature;BME280_humidity;BME280_pressure;Samples;Min_cycle;Max_cycle;Signal;HPM_P1;HPM_P2
2024/04/24 00:00:23;;;;;;;0.10;0.10;;;19.60;46.70;;;;;;5394969;26;20230;-47
2024/04/24 00:02:55;;;;;;;0.10;0.10;;;19.60;46.60;;;;;;5372802;26;20563;-47
2024/04/24 00:05:31;;;;;;;0.08;0.08;;;19.60;46.40;;;;;;5371943;26;20249;-52
2024/04/24 00:08:04;;;;;;;0.00;0.00;;;19.70;46.50;;;;;;5400291;26;20708;-50
2024/04/24 00:10:36;;;;;;;0.10;0.10;;;19.70;46.40;;;;;;5367482;26;20733;-54
2024/04/24 00:13:08;;;;;;;0.00;0.00;;;19.70;46.20;;;;;;5371052;26;20335;-51
2024/04/24 00:15:40;;;;;;;0.00;0.00;;;19.70;46.20;;;;;;5371813;26;20746;-54
2024/04/24 00:18:13;;;;;;;0.00;0.00;;;19.80;46.30;;;;;;5371279;26;20242;-54
2024/04/24 00:20:48;;;;;;;0.00;0.00;;;19.80;45.10;;;;;;5371328;26;20222;-47
2024/04/24 00:23:20;;;;;;;0.00;0.00;;;19.90;44.20;;;;;;5371204;26;20214;-46
2024/04/24 00:25:53;;;;;;;0.00;0.00;;;19.90;43.70;;;;;;5372509;26;20261;-50
2024/04/24 00:28:25;;;;;;;0.00;0.00;;;20.00;43.30;;;;;;5371331;26;20592;-53
2024/04/24 00:31:02;;;;;;;0.08;0.08;;;20.10;43.00;;;;;;5370932;26;20330;-56
2024/04/24 00:33:34;;;;;;;0.00;0.00;;;20.10;43.30;;;;;;5372602;26;20268;-57
2024/04/24 00:36:10;;;;;;;0.08;0.08;;;20.20;43.50;;;;;;5370545;26;20210;-54
2024/04/24 00:38:42;;;;;;;0.00;0.00;;;20.30;43.70;;;;;;5371879;26;20210;-57
2024/04/24 00:41:14;;;;;;;0.10;0.10;;;20.30;43.80;;;;;;5369604;26;20222;-55
2024/04/24 00:43:47;;;;;;;0.00;0.00;;;20.30;43.90;;;;;;5386516;26;20290;-51
2024/04/24 00:46:22;;;;;;;0.00;0.00;;;20.40;43.90;;;;;;5384317;26;20226;-51
2024/04/24 00:48:55;;;;;;;0.03;0.03;;;20.40;43.60;;;;;;5370881;26;20234;-49
2024/04/24 00:51:31;;;;;;;0.00;0.00;;;20.40;42.90;;;;;;5369809;26;20690;-50
2024/04/24 00:54:04;;;;;;;0.10;0.10;;;20.50;43.00;;;;;;5369917;26;20210;-50
2024/04/24 00:56:36;;;;;;;0.00;0.00;;;20.50;43.10;;;;;;5371228;26;20230;-51
2024/04/24 00:59:08;;;;;;;0.00;0.00;;;20.60;43.30;;;;;;5370857;26;20265;-55
2024/04/24 01:01:41;;;;;;;0.10;0.10;;;20.60;43.40;;;;;;5371888;26;20226;-53
2024/04/24 01:04:13;;;;;;;0.10;0.10;;;20.60;43.50;;;;;;5374255;26;20261;-52
2024/04/24 01:06:49;;;;;;;0.00;0.00;;;20.70;43.70;;;;;;5374723;26;20493;-54
2024/04/24 01:09:22;;;;;;;0.10;0.10;;;20.70;43.80;;;;;;5373502;26;20233;-53
2024/04/24 01:11:55;;;;;;;0.10;0.10;;;20.70;43.90;;;;;;5336476;26;20215;-55
2024/04/24 01:14:27;;;;;;;0.00;0.00;;;20.80;43.90;;;;;;5340480;26;20215;-54
2024/04/24 01:17:00;;;;;;;0.10;0.10;;;20.80;43.90;;;;;;5370457;26;20214;-51
2024/04/24 01:19:46;;;;;;;0.00;0.00;;;20.90;43.90;;;;;;5373560;26;20230;-55
2024/04/24 01:22:38;;;;;;;0.00;0.00;;;20.90;43.80;;;;;;5372316;26;20218;-52
2024/04/24 01:25:22;;;;;;;0.10;0.10;;;20.90;43.90;;;;;;5375531;26;20222;-53
2024/04/24 01:27:57;;;;;;;0.10;0.10;;;21.00;44.00;;;;;;5374850;26;20215;-54
2024/04/24 01:30:29;;;;;;;0.10;0.10;;;21.00;44.10;;;;;;5375353;26;20706;-52
2024/04/24 01:33:02;;;;;;;0.10;0.10;;;21.00;44.20;;;;;;5374258;26;20222;-52
2024/04/24 01:35:34;;;;;;;0.00;0.00;;;21.10;44.20;;;;;;5375241;26;20277;-54
2024/04/24 01:38:06;;;;;;;0.10;0.10;;;21.10;44.20;;;;;;5373904;26;20214;-52
2024/04/24 01:40:35;;;;;;;0.10;0.10;;;21.10;44.20;;;;;;5372607;26;20230;-52
2024/04/24 01:43:12;;;;;;;0.00;0.00;;;21.10;44.20;;;;;;5380329;26;20675;-54
2024/04/24 01:45:44;;;;;;;0.10;0.10;;;21.10;43.90;;;;;;5393137;26;20218;-51
2024/04/24 01:48:17;;;;;;;0.10;0.10;;;21.20;44.00;;;;;;5372340;26;20335;-52
2024/04/24 01:50:49;;;;;;;0.08;0.08;;;21.20;44.00;;;;;;5342902;26;20607;-52
2024/04/24 01:53:21;;;;;;;0.10;0.10;;;21.30;44.10;;;;;;5342876;26;20327;-51
2024/04/24 01:55:54;;;;;;;0.10;0.10;;;21.30;43.90;;;;;;5343308;26;20703;-55
2024/04/24 01:58:29;;;;;;;0.10;0.10;;;21.40;43.80;;;;;;5342841;26;20293;-50
2024/04/24 02:01:01;;;;;;;0.00;0.00;;;21.40;43.60;;;;;;5343022;26;20258;-51
2024/04/24 02:03:33;;;;;;;0.00;0.00;;;21.40;43.50;;;;;;5343540;26;20223;-51
2024/04/24 02:06:06;;;;;;;0.00;0.00;;;21.40;43.30;;;;;;5370092;26;20318;-53
2024/04/24 02:08:38;;;;;;;0.00;0.00;;;21.40;43.20;;;;;;5373188;26;20230;-50
2024/04/24 02:11:11;;;;;;;0.00;0.00;;;21.50;43.10;;;;;;5367566;26;20223;-52
2024/04/24 02:13:47;;;;;;;0.08;0.08;;;21.50;42.70;;;;;;5374521;26;20226;-48
2024/04/24 02:16:19;;;;;;;0.00;0.00;;;21.60;42.50;;;;;;5372283;26;20269;-49
2024/04/24 02:18:51;;;;;;;0.10;0.10;;;21.60;42.70;;;;;;5371148;26;20326;-50
2024/04/24 02:21:23;;;;;;;0.08;0.08;;;21.60;42.70;;;;;;5372965;26;20256;-48
2024/04/24 02:23:58;;;;;;;0.03;0.03;;;21.60;42.50;;;;;;5374321;26;20258;-49
2024/04/24 02:26:27;;;;;;;0.00;0.00;;;21.70;42.30;;;;;;5372454;26;20709;-48
2024/04/24 02:29:02;;;;;;;0.00;0.00;;;21.60;42.00;;;;;;5373558;26;20277;-49
2024/04/24 02:31:35;;;;;;;0.10;0.10;;;21.70;41.90;;;;;;5372337;26;20707;-50
2024/04/24 02:34:07;;;;;;;0.10;0.10;;;21.70;41.70;;;;;;5373017;26;20249;-48
2024/04/24 02:36:39;;;;;;;0.00;0.00;;;21.70;41.70;;;;;;5373610;26;20322;-50
2024/04/24 02:39:08;;;;;;;0.10;0.10;;;21.80;41.90;;;;;;5373248;26;20714;-50
2024/04/24 02:41:40;;;;;;;0.10;0.10;;;21.80;42.00;;;;;;5372679;26;20278;-48
2024/04/24 02:44:16;;;;;;;0.00;0.00;;;21.90;41.80;;;;;;5371811;26;20862;-50
2024/04/24 02:46:49;;;;;;;0.10;0.10;;;21.90;41.80;;;;;;5373957;26;20214;-47
2024/04/24 02:49:21;;;;;;;0.00;0.00;;;21.90;41.70;;;;;;5372967;26;20226;-51
2024/04/24 02:51:53;;;;;;;0.10;0.10;;;22.00;41.60;;;;;;5373978;26;20219;-52
2024/04/24 02:54:25;;;;;;;0.10;0.10;;;22.00;41.40;;;;;;5372733;26;20218;-51
2024/04/24 02:56:58;;;;;;;0.00;0.00;;;22.00;41.30;;;;;;5372486;26;20222;-48
2024/04/24 02:59:33;;;;;;;0.00;0.00;;;22.10;41.30;;;;;;5387297;26;20608;-51
2024/04/24 03:02:05;;;;;;;0.10;0.10;;;22.10;41.30;;;;;;5381077;26;20230;-49
2024/04/24 03:04:38;;;;;;;0.00;0.00;;;22.10;41.30;;;;;;5372281;26;20804;-50
2024/04/24 03:07:10;;;;;;;0.10;0.10;;;22.10;41.20;;;;;;5371510;26;20206;-54
2024/04/24 03:09:42;;;;;;;0.00;0.00;;;22.10;41.20;;;;;;5372729;26;20234;-48
2024/04/24 03:12:16;;;;;;;0.00;0.00;;;22.20;41.30;;;;;;5376696;21;20801;-49
2024/04/24 03:14:51;;;;;;;0.10;0.10;;;22.20;41.20;;;;;;5303763;27;20338;-50
2024/04/24 03:17:23;;;;;;;0.10;0.10;;;22.30;41.20;;;;;;5304620;26;20232;-53
2024/04/24 03:19:56;;;;;;;0.00;0.00;;;22.30;41.20;;;;;;5303137;26;20236;-53
2024/04/24 03:22:28;;;;;;;0.10;0.10;;;22.30;41.20;;;;;;5303386;27;20220;-52
2024/04/24 03:25:00;;;;;;;0.00;0.00;;;22.30;41.10;;;;;;5304648;26;20216;-50
2024/04/24 03:27:33;;;;;;;0.10;0.10;;;22.40;41.00;;;;;;5373218;26;20560;-52
2024/04/24 03:30:09;;;;;;;0.10;0.10;;;22.40;40.80;;;;;;5372778;26;20285;-51
2024/04/24 03:32:41;;;;;;;0.10;0.10;;;22.40;40.80;;;;;;5373694;26;20649;-52
2024/04/24 03:35:14;;;;;;;0.10;0.10;;;22.40;40.90;;;;;;5372951;26;20334;-51
2024/04/24 03:37:46;;;;;;;0.10;0.10;;;22.40;41.00;;;;;;5371107;26;20921;-52
2024/04/24 03:40:18;;;;;;;0.10;0.10;;;22.50;40.90;;;;;;5371587;26;20234;-49
2024/04/24 03:42:51;;;;;;;0.00;0.00;;;22.50;41.00;;;;;;5371343;26;20304;-52
2024/04/24 03:45:26;;;;;;;0.10;0.10;;;22.60;41.20;;;;;;5364565;26;20266;-53
2024/04/24 03:47:59;;;;;;;0.00;0.00;;;22.60;41.20;;;;;;5336817;26;20515;-51
2024/04/24 03:50:31;;;;;;;0.00;0.00;;;22.60;41.40;;;;;;5345783;26;20238;-53
2024/04/24 03:53:03;;;;;;;0.10;0.10;;;22.60;41.40;;;;;;5372256;26;20254;-52
2024/04/24 03:55:35;;;;;;;0.00;0.00;;;22.70;41.50;;;;;;5373085;26;20218;-54
2024/04/24 03:58:08;;;;;;;0.08;0.08;;;22.70;41.40;;;;;;5371513;26;20214;-53
2024/04/24 04:00:43;;;;;;;0.10;0.10;;;22.70;41.40;;;;;;5339945;26;20278;-53
2024/04/24 04:03:16;;;;;;;0.10;0.10;;;22.70;41.40;;;;;;5337663;26;20355;-52
2024/04/24 04:05:48;;;;;;;0.10;0.10;;;22.80;41.50;;;;;;5336513;26;20239;-52
2024/04/24 04:08:22;;;;;;;0.10;0.10;;;22.80;41.50;;;;;;5312128;26;20225;-55
2024/04/24 04:10:55;;;;;;;0.00;0.00;;;22.90;41.60;;;;;;5333868;26;20332;-53
2024/04/24 04:13:28;;;;;;;0.10;0.10;;;22.90;41.70;;;;;;5356522;21;20266;-48
2024/04/24 04:16:03;;;;;;;0.10;0.10;;;22.90;41.80;;;;;;5341592;26;20216;-48
2024/04/24 04:18:35;;;;;;;0.10;0.10;;;23.00;41.80;;;;;;5340729;26;20223;-50
2024/04/24 04:21:08;;;;;;;0.00;0.00;;;23.00;41.80;;;;;;5341113;26;20207;-50
2024/04/24 04:23:40;;;;;;;0.00;0.00;;;23.00;41.80;;;;;;5340876;26;20223;-50
2024/04/24 04:26:12;;;;;;;0.10;0.10;;;23.10;41.90;;;;;;5341567;26;20914;-51
2024/04/24 04:28:44;;;;;;;0.00;0.00;;;23.10;41.90;;;;;;5341970;26;20825;-48
2024/04/24 04:31:20;;;;;;;0.00;0.00;;;23.10;41.90;;;;;;5341716;26;20293;-52
2024/04/24 04:33:52;;;;;;;0.10;0.10;;;23.10;41.90;;;;;;5341953;26;20215;-51
2024/04/24 04:36:24;;;;;;;0.00;0.00;;;23.10;41.90;;;;;;5340794;26;20215;-49
2024/04/24 04:38:57;;;;;;;0.10;0.10;;;23.20;41.80;;;;;;5340901;26;20332;-51
2024/04/24 04:41:29;;;;;;;0.00;0.00;;;23.20;41.80;;;;;;5340699;26;20261;-48
2024/04/24 04:44:01;;;;;;;0.10;0.10;;;23.30;41.80;;;;;;5340744;26;20223;-51
2024/04/24 04:46:37;;;;;;;0.00;0.00;;;23.30;41.90;;;;;;5340679;26;20570;-50
2024/04/24 04:49:09;;;;;;;0.00;0.00;;;23.30;41.90;;;;;;5340474;26;20545;-48
2024/04/24 04:51:41;;;;;;;0.10;0.10;;;23.30;41.80;;;;;;5341045;26;20312;-53
2024/04/24 04:54:13;;;;;;;0.03;0.03;;;23.30;41.80;;;;;;5341316;26;20216;-51
2024/04/24 04:56:46;;;;;;;0.00;0.00;;;23.30;41.90;;;;;;5340928;26;20331;-48
2024/04/24 04:59:18;;;;;;;0.00;0.00;;;23.40;41.90;;;;;;5340600;26;20232;-52
2024/04/24 05:01:53;;;;;;;0.00;0.00;;;23.40;42.50;;;;;;5339830;26;21092;-51
2024/04/24 05:04:26;;;;;;;0.10;0.10;;;23.40;41.90;;;;;;5340681;26;20218;-48
2024/04/24 05:06:58;;;;;;;0.10;0.10;;;23.40;42.00;;;;;;5341033;26;20582;-50
2024/04/24 05:09:32;;;;;;;0.10;0.10;;;23.40;42.00;;;;;;5340944;26;20227;-50
2024/04/24 05:12:04;;;;;;;0.10;0.10;;;23.50;42.10;;;;;;5337948;26;20263;-49
2024/04/24 05:14:37;;;;;;;0.10;0.10;;;23.40;42.10;;;;;;5340535;26;20903;-52
2024/04/24 05:17:12;;;;;;;0.10;0.10;;;23.50;42.20;;;;;;5340968;26;20227;-50
2024/04/24 05:19:45;;;;;;;0.00;0.00;;;23.50;42.20;;;;;;5340694;26;20231;-50
2024/04/24 05:22:17;;;;;;;0.05;0.05;;;23.50;42.30;;;;;;5339753;26;20220;-48
2024/04/24 05:24:49;;;;;;;0.00;0.00;;;23.50;42.30;;;;;;5340407;26;20216;-49
2024/04/24 05:30:09;;;;;;;0.10;0.10;;;23.50;42.40;;;;;;5342984;26;20346;-49
2024/04/24 05:32:44;;;;;;;0.00;0.00;;;23.50;42.50;;;;;;5340431;26;20223;-50
2024/04/24 05:35:16;;;;;;;0.03;0.03;;;23.50;42.50;;;;;;5340456;26;20307;-48
2024/04/24 05:37:49;;;;;;;0.10;0.10;;;23.50;42.50;;;;;;5340211;26;20443;-51
2024/04/24 05:40:21;;;;;;;0.00;0.00;;;23.50;42.50;;;;;;5340532;26;20817;-49
2024/04/24 05:42:53;;;;;;;0.10;0.10;;;23.50;42.50;;;;;;5340326;26;20258;-52
2024/04/24 05:45:25;;;;;;;0.00;0.00;;;23.50;42.50;;;;;;5340749;26;20250;-51
2024/04/24 05:48:01;;;;;;;0.00;0.00;;;23.50;42.40;;;;;;5341187;26;20215;-52
2024/04/24 05:50:33;;;;;;;0.00;0.00;;;23.50;42.40;;;;;;5343347;26;20227;-50
2024/04/24 05:53:05;;;;;;;0.00;0.00;;;23.50;42.50;;;;;;5343658;26;20215;-50
2024/04/24 05:55:38;;;;;;;0.00;0.00;;;23.50;42.40;;;;;;5343658;26;20215;-49
2024/04/24 05:58:10;;;;;;;0.00;0.00;;;23.50;42.50;;;;;;5346154;26;20274;-51
2024/04/24 06:00:42;;;;;;;0.00;0.00;;;23.40;42.40;;;;;;5346721;26;20239;-52
2024/04/24 06:03:18;;;;;;;0.10;0.10;;;23.40;42.50;;;;;;5346338;26;20793;-51
2024/04/24 06:05:50;;;;;;;0.00;0.00;;;23.50;42.50;;;;;;5345877;26;20224;-53
2024/04/24 06:08:22;;;;;;;0.05;0.05;;;23.40;42.40;;;;;;5329938;26;20232;-51
2024/04/24 06:10:54;;;;;;;0.00;0.00;;;23.40;42.40;;;;;;5311884;27;20224;-49
2024/04/24 06:13:27;;;;;;;0.00;0.00;;;23.40;42.40;;;;;;5338920;26;20232;-50
2024/04/24 06:15:59;;;;;;;0.00;0.00;;;23.40;42.40;;;;;;5345636;26;20289;-48
2024/04/24 06:18:35;;;;;;;0.08;0.08;;;23.40;42.30;;;;;;5346353;26;20219;-49
2024/04/24 06:21:07;;;;;;;0.00;0.00;;;23.30;42.30;;;;;;5346653;26;20336;-48
2024/04/24 06:23:40;;;;;;;0.00;0.00;;;23.30;42.30;;;;;;5346647;26;20216;-49
2024/04/24 06:26:12;;;;;;;0.08;0.08;;;23.30;42.30;;;;;;5346131;26;20219;-48
2024/04/24 06:28:44;;;;;;;0.00;0.00;;;23.30;42.40;;;;;;5344567;26;20228;-51
2024/04/24 06:31:16;;;;;;;0.00;0.00;;;23.30;42.40;;;;;;5346420;26;20254;-48
2024/04/24 06:33:52;;;;;;;0.00;0.00;;;23.30;42.40;;;;;;5346586;26;20220;-48
2024/04/24 06:36:25;;;;;;;0.00;0.00;;;23.30;42.50;;;;;;5345945;26;20219;-48
2024/04/24 06:38:57;;;;;;;0.00;0.00;;;23.20;42.50;;;;;;5345632;26;20235;-49
2024/04/24 06:41:29;;;;;;;0.00;0.00;;;23.20;42.50;;;;;;5344879;26;20216;-47
2024/04/24 06:44:01;;;;;;;0.00;0.00;;;23.20;42.50;;;;;;5344514;26;20220;-50
2024/04/24 06:46:34;;;;;;;0.00;0.00;;;23.20;42.60;;;;;;5345660;26;20746;-48
2024/04/24 06:49:09;;;;;;;0.00;0.00;;;23.10;42.50;;;;;;5345775;26;20571;-49
2024/04/24 06:51:41;;;;;;;0.10;0.10;;;23.10;42.70;;;;;;5344730;26;20274;-49
2024/04/24 06:54:14;;;;;;;0.05;0.05;;;23.10;42.50;;;;;;5345191;26;20216;-48
2024/04/24 06:56:46;;;;;;;0.00;0.00;;;23.10;42.50;;;;;;5345559;26;20258;-49
2024/04/24 06:59:18;;;;;;;0.00;0.00;;;23.10;43.10;;;;;;5345775;26;20282;-50
2024/04/24 07:01:50;;;;;;;0.00;0.00;;;23.10;42.50;;;;;;5345773;26;20254;-49
2024/04/24 07:04:26;;;;;;;0.10;0.10;;;23.10;42.50;;;;;;5345725;26;20816;-49
2024/04/24 07:06:58;;;;;;;0.10;0.10;;;23.00;42.40;;;;;;5345371;26;20815;-52
2024/04/24 07:09:31;;;;;;;0.00;0.00;;;23.00;42.50;;;;;;5345065;26;20769;-48
2024/04/24 07:12:03;;;;;;;0.10;0.10;;;23.00;42.50;;;;;;5344798;26;20220;-49
2024/04/24 07:14:35;;;;;;;0.10;0.10;;;23.00;42.50;;;;;;5344924;26;20224;-47
2024/04/24 07:17:08;;;;;;;0.10;0.10;;;23.00;42.50;;;;;;5345664;26;20216;-48
2024/04/24 07:19:43;;;;;;;0.00;0.00;;;22.90;42.50;;;;;;5344195;26;20227;-48
2024/04/24 07:22:16;;;;;;;0.08;0.08;;;22.90;42.60;;;;;;5345351;26;20562;-48
2024/04/24 07:24:49;;;;;;;0.00;0.00;;;22.90;42.60;;;;;;5345573;26;20223;-48
2024/04/24 07:27:21;;;;;;;0.10;0.10;;;22.90;42.60;;;;;;5344978;26;20328;-48
2024/04/24 07:29:53;;;;;;;0.00;0.00;;;22.90;42.70;;;;;;5345366;26;20369;-50
2024/04/24 07:32:25;;;;;;;0.00;0.00;;;22.90;42.80;;;;;;5345367;26;20219;-50
2024/04/24 07:35:01;;;;;;;0.00;0.00;;;22.90;42.80;;;;;;5345413;26;20319;-49
2024/04/24 07:37:33;;;;;;;0.10;0.10;;;22.80;42.80;;;;;;5345147;26;20257;-50
2024/04/24 07:40:06;;;;;;;0.00;0.00;;;22.80;42.80;;;;;;5344840;26;20231;-49
2024/04/24 07:42:38;;;;;;;0.08;0.08;;;22.80;42.80;;;;;;5343697;26;20568;-50
2024/04/24 07:45:11;;;;;;;0.00;0.00;;;22.80;42.80;;;;;;5344379;26;20602;-50
2024/04/24 07:47:43;;;;;;;0.00;0.00;;;22.80;42.80;;;;;;5345118;26;20253;-49
2024/04/24 07:50:18;;;;;;;0.10;0.10;;;22.70;42.80;;;;;;5345137;26;20223;-47
2024/04/24 07:52:51;;;;;;;0.10;0.10;;;22.70;42.80;;;;;;5310377;27;20257;-49
2024/04/24 07:55:26;;;;;;;0.00;0.00;;;22.70;42.80;;;;;;5310763;27;20298;-49
2024/04/24 07:57:58;;;;;;;0.10;0.10;;;22.70;42.80;;;;;;5310203;27;20228;-48
2024/04/24 08:00:30;;;;;;;0.10;0.10;;;22.70;42.80;;;;;;5310441;26;20283;-48
2024/04/24 08:03:03;;;;;;;0.10;0.10;;;22.60;42.80;;;;;;5309755;27;20220;-50
2024/04/24 08:05:39;;;;;;;0.10;0.10;;;22.60;42.90;;;;;;5309984;27;20275;-48
2024/04/24 08:08:12;;;;;;;0.00;0.00;;;22.60;42.90;;;;;;5310569;27;20589;-49
2024/04/24 08:10:44;;;;;;;0.10;0.10;;;22.60;43.00;;;;;;5341371;26;20227;-53
2024/04/24 08:13:17;;;;;;;0.00;0.00;;;22.60;43.00;;;;;;5344635;26;20228;-51
2024/04/24 08:15:49;;;;;;;0.05;0.05;;;22.50;43.00;;;;;;5345007;26;20234;-51
2024/04/24 08:18:22;;;;;;;0.10;0.10;;;22.50;43.00;;;;;;5343937;26;20227;-52
2024/04/24 08:20:59;;;;;;;0.00;0.00;;;22.50;43.10;;;;;;5344810;26;20223;-51
2024/04/24 08:23:31;;;;;;;0.10;0.10;;;22.50;43.20;;;;;;5344160;26;20219;-49
2024/04/24 08:26:04;;;;;;;0.10;0.10;;;22.50;43.20;;;;;;5343523;26;20262;-49
2024/04/24 08:28:36;;;;;;;0.05;0.05;;;22.50;43.20;;;;;;5343645;26;20227;-49
2024/04/24 08:31:08;;;;;;;0.08;0.08;;;22.50;43.20;;;;;;5343994;26;20219;-49
2024/04/24 08:33:41;;;;;;;0.10;0.10;;;22.50;43.20;;;;;;5343590;26;20266;-48
2024/04/24 08:36:17;;;;;;;0.10;0.10;;;22.40;43.20;;;;;;5344532;26;20219;-48
2024/04/24 08:38:49;;;;;;;0.00;0.00;;;22.40;43.20;;;;;;5344175;26;20231;-47
2024/04/24 08:41:22;;;;;;;0.00;0.00;;;22.40;43.20;;;;;;5343360;26;20223;-47
2024/04/24 08:43:55;;;;;;;0.00;0.00;;;22.40;43.20;;;;;;5343754;26;20261;-51
2024/04/24 08:46:30;;;;;;;0.10;0.10;;;22.40;43.20;;;;;;5344221;26;20254;-48
2024/04/24 08:49:05;;;;;;;0.10;0.10;;;22.40;43.30;;;;;;5344787;26;20332;-47
2024/04/24 08:51:42;;;;;;;0.00;0.00;;;22.40;43.30;;;;;;5344440;26;20218;-48
2024/04/24 08:54:18;;;;;;;0.00;0.00;;;22.30;43.30;;;;;;5344253;26;20258;-49
2024/04/24 08:56:52;;;;;;;0.00;0.00;;;22.30;43.30;;;;;;5343238;26;20215;-49
2024/04/24 08:59:26;;;;;;;0.00;0.00;;;22.30;43.30;;;;;;5343892;26;20232;-52
2024/04/24 09:02:07;;;;;;;0.00;0.00;;;22.30;43.30;;;;;;5343420;26;20277;-48
2024/04/24 09:04:40;;;;;;;0.10;0.10;;;22.30;43.40;;;;;;5343725;26;20223;-50
2024/04/24 09:07:21;;;;;;;0.10;0.10;;;22.20;43.40;;;;;;5343566;26;20555;-48
2024/04/24 09:09:54;;;;;;;0.00;0.00;;;22.20;43.40;;;;;;5343529;26;20226;-49
2024/04/24 09:12:27;;;;;;;0.10;0.10;;;22.20;43.40;;;;;;5343870;26;20216;-49
2024/04/24 09:15:00;;;;;;;0.00;0.00;;;22.20;43.50;;;;;;5343485;26;20292;-49
2024/04/24 09:17:34;;;;;;;0.00;0.00;;;22.20;43.50;;;;;;5339722;26;20556;-50
2024/04/24 09:20:07;;;;;;;0.00;0.00;;;22.20;43.50;;;;;;5343044;26;20274;-50
2024/04/24 09:22:42;;;;;;;0.00;0.00;;;22.20;43.50;;;;;;5341779;26;20228;-49
2024/04/24 09:25:14;;;;;;;0.10;0.10;;;22.20;43.60;;;;;;5345168;26;20218;-49
2024/04/24 09:27:47;;;;;;;0.10;0.10;;;22.10;43.50;;;;;;5345964;26;20615;-51
2024/04/24 09:30:20;;;;;;;0.10;0.10;;;22.10;43.60;;;;;;5345621;26;20231;-53
2024/04/24 09:32:52;;;;;;;0.00;0.00;;;22.10;43.60;;;;;;5345854;26;20219;-52
2024/04/24 09:35:25;;;;;;;0.10;0.10;;;22.10;43.60;;;;;;5346876;26;20693;-50
2024/04/24 09:38:01;;;;;;;0.00;0.00;;;22.10;43.70;;;;;;5347032;26;20219;-52
2024/04/24 09:40:34;;;;;;;0.00;0.00;;;22.00;43.70;;;;;;5346926;26;20281;-49
2024/04/24 09:43:06;;;;;;;0.10;0.10;;;22.00;43.70;;;;;;5346930;26;20269;-53
2024/04/24 09:45:38;;;;;;;0.10;0.10;;;22.00;43.70;;;;;;5347041;26;20219;-52
2024/04/24 09:48:12;;;;;;;0.00;0.00;;;22.00;43.70;;;;;;5344629;26;20719;-53
2024/04/24 09:50:44;;;;;;;0.00;0.00;;;22.00;43.80;;;;;;5345600;26;20231;-52
2024/04/24 09:53:25;;;;;;;0.03;0.03;;;21.90;43.80;;;;;;5346152;26;20266;-49
2024/04/24 09:56:05;;;;;;;0.05;0.05;;;21.90;43.80;;;;;;5346840;26;20324;-50
2024/04/24 09:58:39;;;;;;;0.10;0.10;;;21.90;43.80;;;;;;5346704;26;20216;-52
2024/04/24 10:01:12;;;;;;;0.10;0.10;;;21.90;43.80;;;;;;5346114;26;20228;-53
2024/04/24 10:03:45;;;;;;;0.00;0.00;;;21.90;43.90;;;;;;5346767;26;20723;-53
2024/04/24 10:06:22;;;;;;;0.00;0.00;;;21.90;43.90;;;;;;5346192;26;20220;-53
2024/04/24 10:09:00;;;;;;;0.00;0.00;;;21.90;43.90;;;;;;5346000;26;20316;-51
2024/04/24 10:11:36;;;;;;;0.10;0.10;;;21.90;44.00;;;;;;5345439;26;20224;-53
2024/04/24 10:14:09;;;;;;;0.10;0.10;;;21.90;44.00;;;;;;5311872;27;20274;-49
2024/04/24 10:16:41;;;;;;;0.00;0.00;;;21.90;44.10;;;;;;5338791;26;20270;-52
2024/04/24 10:19:14;;;;;;;0.00;0.00;;;21.80;44.10;;;;;;5346872;26;20227;-50
2024/04/24 10:21:48;;;;;;;0.10;0.10;;;21.90;44.20;;;;;;5346919;26;20549;-51
2024/04/24 10:24:25;;;;;;;0.00;0.00;;;21.80;44.20;;;;;;5346119;26;20304;-50
2024/04/24 10:26:58;;;;;;;0.08;0.08;;;21.80;44.20;;;;;;5346062;26;20223;-52
2024/04/24 10:29:32;;;;;;;0.00;0.00;;;21.80;44.30;;;;;;5345977;26;20269;-51
2024/04/24 10:32:07;;;;;;;0.00;0.00;;;21.90;44.40;;;;;;5346468;26;20219;-54
2024/04/24 10:34:37;;;;;;;0.00;0.00;;;21.80;44.30;;;;;;5345812;26;20235;-50
2024/04/24 10:37:09;;;;;;;0.10;0.10;;;21.80;45.00;;;;;;5345617;26;20257;-51
2024/04/24 10:39:54;;;;;;;0.08;0.08;;;21.80;44.50;;;;;;5345455;26;20723;-48
2024/04/24 10:42:26;;;;;;;0.10;0.10;;;21.80;44.50;;;;;;5337952;26;20398;-52
2024/04/24 10:44:59;;;;;;;0.10;0.10;;;21.80;44.50;;;;;;5342314;26;20293;-47
2024/04/24 10:47:31;;;;;;;0.00;0.00;;;21.80;44.60;;;;;;5345402;26;20224;-50
2024/04/24 10:50:04;;;;;;;0.10;0.10;;;21.80;44.60;;;;;;5340708;26;20228;-52
2024/04/24 10:52:36;;;;;;;0.00;0.00;;;21.80;44.60;;;;;;5341262;26;20214;-50
2024/04/24 10:55:20;;;;;;;0.00;0.00;;;21.80;44.60;;;;;;5340451;26;20354;-52
2024/04/24 10:57:54;;;;;;;0.00;0.00;;;21.70;44.60;;;;;;5340112;26;20559;-48
2024/04/24 11:00:27;;;;;;;0.00;0.00;;;21.70;44.50;;;;;;5368887;26;20276;-50
2024/04/24 11:03:01;;;;;;;0.10;0.10;;;21.70;44.60;;;;;;5374672;26;20218;-49
2024/04/24 11:05:37;;;;;;;0.00;0.00;;;21.70;44.50;;;;;;5342532;26;20240;-51
2024/04/24 11:08:10;;;;;;;0.10;0.10;;;21.60;44.50;;;;;;5337986;26;20271;-49
2024/04/24 11:10:53;;;;;;;0.00;0.00;;;21.60;44.50;;;;;;5337293;26;20270;-48
2024/04/24 11:13:25;;;;;;;0.03;0.03;;;21.60;44.50;;;;;;5337473;26;20232;-47
2024/04/24 11:16:04;;;;;;;0.00;0.00;;;21.60;44.50;;;;;;5336672;26;20223;-51
2024/04/24 11:18:38;;;;;;;0.00;0.00;;;21.50;44.50;;;;;;5335188;26;20223;-49
2024/04/24 11:21:10;;;;;;;0.00;0.00;;;21.50;44.50;;;;;;5337947;26;20223;-51
2024/04/24 11:23:51;;;;;;;0.00;0.00;;;21.50;44.50;;;;;;5336497;26;20262;-50
2024/04/24 11:26:33;;;;;;;0.10;0.10;;;21.50;44.50;;;;;;5337624;26;20324;-48
2024/04/24 11:29:07;;;;;;;0.05;0.05;;;21.50;44.50;;;;;;5337572;26;20278;-49
2024/04/24 11:31:41;;;;;;;0.10;0.10;;;21.40;44.50;;;;;;5337429;26;20266;-48
2024/04/24 11:34:14;;;;;;;0.10;0.10;;;21.40;44.50;;;;;;5337013;26;20218;-47
2024/04/24 11:36:48;;;;;;;0.10;0.10;;;21.40;44.50;;;;;;5363472;26;20226;-47
2024/04/24 11:39:22;;;;;;;0.10;0.10;;;21.40;44.50;;;;;;5372295;26;20226;-47
2024/04/24 11:41:59;;;;;;;0.10;0.10;;;21.40;44.50;;;;;;5371180;26;20253;-48
2024/04/24 11:44:31;;;;;;;0.00;0.00;;;21.40;44.50;;;;;;5364530;26;20223;-47
2024/04/24 11:47:04;;;;;;;0.10;0.10;;;21.40;44.50;;;;;;5336962;26;20221;-50
2024/04/24 11:49:36;;;;;;;0.00;0.00;;;21.40;44.50;;;;;;5337124;26;20223;-47
2024/04/24 11:52:11;;;;;;;0.10;0.10;;;21.30;44.50;;;;;;5337664;26;20254;-50
2024/04/24 11:54:43;;;;;;;0.00;0.00;;;21.30;44.60;;;;;;5337884;26;20265;-50
2024/04/24 11:57:20;;;;;;;0.08;0.08;;;21.30;44.50;;;;;;5337070;26;20568;-49
2024/04/24 11:59:53;;;;;;;0.00;0.00;;;21.30;44.60;;;;;;5339364;26;20227;-51
2024/04/24 12:02:25;;;;;;;0.10;0.10;;;21.20;44.50;;;;;;5337889;26;20223;-51
2024/04/24 12:04:57;;;;;;;0.00;0.00;;;21.20;44.50;;;;;;5339578;26;20585;-52
2024/04/24 12:07:30;;;;;;;0.00;0.00;;;21.20;44.60;;;;;;5339018;26;20258;-53
2024/04/24 12:10:02;;;;;;;0.10;0.10;;;21.20;44.50;;;;;;5339309;26;20340;-49
2024/04/24 12:12:39;;;;;;;0.05;0.05;;;21.20;44.60;;;;;;5336011;26;20606;-50
2024/04/24 12:15:15;;;;;;;0.00;0.00;;;21.10;44.50;;;;;;5339225;26;20297;-49
2024/04/24 12:17:48;;;;;;;0.10;0.10;;;21.10;44.50;;;;;;5339954;26;20218;-52
2024/04/24 12:20:20;;;;;;;0.00;0.00;;;21.10;44.50;;;;;;5339494;26;20270;-51
2024/04/24 12:22:52;;;;;;;0.00;0.00;;;21.10;44.50;;;;;;5335750;26;20224;-50
2024/04/24 12:25:25;;;;;;;0.00;0.00;;;21.10;44.50;;;;;;5338908;26;20656;-49
2024/04/24 12:28:01;;;;;;;0.05;0.05;;;21.10;44.50;;;;;;5340987;26;20332;-50
2024/04/24 12:30:33;;;;;;;0.10;0.10;;;21.10;44.50;;;;;;5340055;26;20227;-48
2024/04/24 12:33:05;;;;;;;0.10;0.10;;;21.10;44.40;;;;;;5339773;26;20345;-50
2024/04/24 12:35:38;;;;;;;0.10;0.10;;;21.10;44.40;;;;;;5349189;26;20611;-48
2024/04/24 12:38:10;;;;;;;0.10;0.10;;;21.00;44.40;;;;;;5347710;26;20601;-50
2024/04/24 12:40:42;;;;;;;0.00;0.00;;;21.00;44.40;;;;;;5340180;26;20287;-50
2024/04/24 12:43:18;;;;;;;0.10;0.10;;;21.00;44.40;;;;;;5339315;26;20555;-47
2024/04/24 12:45:50;;;;;;;0.00;0.00;;;21.00;44.50;;;;;;5339882;26;20219;-49
2024/04/24 12:48:23;;;;;;;0.05;0.05;;;21.00;44.50;;;;;;5339395;26;20265;-50
2024/04/24 12:50:55;;;;;;;0.00;0.00;;;20.90;44.40;;;;;;5338793;26;20227;-48
2024/04/24 12:53:27;;;;;;;0.00;0.00;;;20.90;44.40;;;;;;5338587;26;20223;-48
2024/04/24 12:55:59;;;;;;;0.10;0.10;;;20.90;44.40;;;;;;5339987;26;20219;-48
2024/04/24 12:58:35;;;;;;;0.10;0.10;;;20.90;44.40;;;;;;5347389;26;20843;-47
2024/04/24 13:01:07;;;;;;;0.00;0.00;;;20.90;44.40;;;;;;5347001;26;20222;-47
2024/04/24 13:03:39;;;;;;;0.00;0.00;;;20.90;44.40;;;;;;5346736;26;20231;-47
2024/04/24 13:06:12;;;;;;;0.10;0.10;;;20.80;44.40;;;;;;5346106;26;20223;-48
2024/04/24 13:08:44;;;;;;;0.05;0.05;;;20.80;44.40;;;;;;5348389;26;20262;-48
2024/04/24 13:11:16;;;;;;;0.00;0.00;;;20.80;44.30;;;;;;5348040;26;20265;-47
2024/04/24 13:13:52;;;;;;;0.10;0.10;;;20.80;44.40;;;;;;5347333;26;20231;-47
2024/04/24 13:16:24;;;;;;;0.00;0.00;;;20.80;44.30;;;;;;5350673;26;20239;-47
2024/04/24 13:18:56;;;;;;;0.00;0.00;;;20.80;44.30;;;;;;5350765;26;20235;-47
2024/04/24 13:21:29;;;;;;;0.00;0.00;;;20.80;44.30;;;;;;5346652;26;20231;-47